sensor_id;sensor_type;location;lat;lon;timestamp;temperature;humidity
13892;DHT22;7016;48.172;8.058;2023-11-21T00:01:02;9.50;99.90
13892;DHT22;7016;48.172;8.058;2023-11-21T00:03:32;9.60;99.90
13892;DHT22;7016;48.172;8.058;2023-11-21T00:05:58;9.50;99.90
13892;DHT22;7016;48.172;8.058;2023-11-21T00:08:24;9.50;99.90
13892;DHT22;7016;48.172;8.058;2023-11-21T00:10:49;9.50;99.90
13892;DHT22;7016;48.172;8.058;2023-11-21T00:13:16;9.60;99.90
13892;DHT22;7016;48.172;8.058;2023-11-21T00:15:42;9.50;99.90
13892;DHT22;7016;48.172;8.058;2023-11-21T00:18:07;9.50;99.90
13892;DHT22;7016;48.172;8.058;2023-11-21T00:20:33;9.50;99.90
13892;DHT22;7016;48.172;8.058;2023-11-21T00:22:59;9.40;99.90
13892;DHT22;7016;48.172;8.058;2023-11-21T00:25:28;9.40;99.90
13892;DHT22;7016;48.172;8.058;2023-11-21T00:27:53;9.40;99.90
13892;DHT22;7016;48.172;8.058;2023-11-21T00:30:19;9.40;99.90
13892;DHT22;7016;48.172;8.058;2023-11-21T00:32:46;9.50;99.90
13892;DHT22;7016;48.172;8.058;2023-11-21T00:35:12;9.60;99.90
13892;DHT22;7016;48.172;8.058;2023-11-21T00:37:37;9.60;99.90
13892;DHT22;7016;48.172;8.058;2023-11-21T00:40:05;9.60;99.90
13892;DHT22;7016;48.172;8.058;2023-11-21T00:42:31;9.60;99.90
13892;DHT22;7016;48.172;8.058;2023-11-21T00:45:00;9.50;99.90
13892;DHT22;7016;48.172;8.058;2023-11-21T00:47:25;9.50;99.90
13892;DHT22;7016;48.172;8.058;2023-11-21T00:49:51;9.50;99.90
13892;DHT22;7016;48.172;8.058;2023-11-21T00:52:17;9.50;99.90
13892;DHT22;7016;48.172;8.058;2023-11-21T00:54:42;9.60;99.90
13892;DHT22;7016;48.172;8.058;2023-11-21T00:57:08;9.60;99.90
13892;DHT22;7016;48.172;8.058;2023-11-21T00:59:34;9.60;99.90
13892;DHT22;7016;48.172;8.058;2023-11-21T01:02:00;9.60;99.90
13892;DHT22;7016;48.172;8.058;2023-11-21T01:04:27;9.60;99.90
13892;DHT22;7016;48.172;8.058;2023-11-21T01:06:52;9.60;99.90
13892;DHT22;7016;48.172;8.058;2023-11-21T01:09:19;9.60;99.90
13892;DHT22;7016;48.172;8.058;2023-11-21T01:11:44;10.90;99.90
13892;DHT22;7016;48.172;8.058;2023-11-21T01:14:10;9.70;99.90
13892;DHT22;7016;48.172;8.058;2023-11-21T01:16:36;9.70;99.90
13892;DHT22;7016;48.172;8.058;2023-11-21T01:19:02;9.70;99.90
13892;DHT22;7016;48.172;8.058;2023-11-21T01:21:27;9.70;99.90
13892;DHT22;7016;48.172;8.058;2023-11-21T01:23:53;9.60;99.90
13892;DHT22;7016;48.172;8.058;2023-11-21T01:26:20;9.50;99.90
13892;DHT22;7016;48.172;8.058;2023-11-21T01:28:46;9.50;99.90
13892;DHT22;7016;48.172;8.058;2023-11-21T01:31:14;9.50;99.90
13892;DHT22;7016;48.172;8.058;2023-11-21T01:33:40;9.40;99.90
13892;DHT22;7016;48.172;8.058;2023-11-21T01:36:06;9.30;99.90
13892;DHT22;7016;48.172;8.058;2023-11-21T01:38:32;9.30;99.90
13892;DHT22;7016;48.172;8.058;2023-11-21T01:40:57;9.40;99.90
13892;DHT22;7016;48.172;8.058;2023-11-21T01:43:26;9.50;99.90
13892;DHT22;7016;48.172;8.058;2023-11-21T01:45:54;9.50;99.90
13892;DHT22;7016;48.172;8.058;2023-11-21T01:48:22;9.40;99.90
13892;DHT22;7016;48.172;8.058;2023-11-21T01:50:48;9.40;99.90
13892;DHT22;7016;48.172;8.058;2023-11-21T01:53:14;9.30;99.90
13892;DHT22;7016;48.172;8.058;2023-11-21T01:55:41;9.20;99.90
13892;DHT22;7016;48.172;8.058;2023-11-21T01:58:08;9.20;99.90
13892;DHT22;7016;48.172;8.058;2023-11-21T02:00:34;9.30;99.90
13892;DHT22;7016;48.172;8.058;2023-11-21T02:03:00;9.30;99.90
13892;DHT22;7016;48.172;8.058;2023-11-21T02:05:26;9.30;99.90
13892;DHT22;7016;48.172;8.058;2023-11-21T02:07:52;9.30;99.90
13892;DHT22;7016;48.172;8.058;2023-11-21T02:10:18;9.40;99.90
13892;DHT22;7016;48.172;8.058;2023-11-21T02:12:49;9.30;99.90
13892;DHT22;7016;48.172;8.058;2023-11-21T02:15:16;9.40;99.90
13892;DHT22;7016;48.172;8.058;2023-11-21T02:17:46;9.40;99.90
13892;DHT22;7016;48.172;8.058;2023-11-21T02:20:20;9.30;99.90
13892;DHT22;7016;48.172;8.058;2023-11-21T02:22:55;9.30;99.90
13892;DHT22;7016;48.172;8.058;2023-11-21T02:25:31;9.30;99.90
13892;DHT22;7016;48.172;8.058;2023-11-21T02:27:58;9.30;99.90
13892;DHT22;7016;48.172;8.058;2023-11-21T02:30:24;9.40;99.90
13892;DHT22;7016;48.172;8.058;2023-11-21T02:32:51;9.40;99.90
13892;DHT22;7016;48.172;8.058;2023-11-21T02:35:20;9.40;99.90
13892;DHT22;7016;48.172;8.058;2023-11-21T02:37:51;9.40;99.90
13892;DHT22;7016;48.172;8.058;2023-11-21T02:40:17;9.50;99.90
13892;DHT22;7016;48.172;8.058;2023-11-21T02:42:44;9.50;99.90
13892;DHT22;7016;48.172;8.058;2023-11-21T02:45:10;9.60;99.90
13892;DHT22;7016;48.172;8.058;2023-11-21T02:47:39;9.60;99.90
13892;DHT22;7016;48.172;8.058;2023-11-21T02:50:05;9.60;99.90
13892;DHT22;7016;48.172;8.058;2023-11-21T02:52:33;9.60;99.90
13892;DHT22;7016;48.172;8.058;2023-11-21T02:54:59;9.50;99.90
13892;DHT22;7016;48.172;8.058;2023-11-21T02:57:25;9.50;99.90
13892;DHT22;7016;48.172;8.058;2023-11-21T02:59:50;9.50;99.90
13892;DHT22;7016;48.172;8.058;2023-11-21T03:02:16;9.60;99.90
13892;DHT22;7016;48.172;8.058;2023-11-21T03:04:42;9.50;99.90
13892;DHT22;7016;48.172;8.058;2023-11-21T03:07:09;9.50;99.90
13892;DHT22;7016;48.172;8.058;2023-11-21T03:09:35;9.60;99.90
13892;DHT22;7016;48.172;8.058;2023-11-21T03:12:01;9.50;99.90
13892;DHT22;7016;48.172;8.058;2023-11-21T03:14:26;9.50;99.90
13892;DHT22;7016;48.172;8.058;2023-11-21T03:16:52;9.40;99.90
13892;DHT22;7016;48.172;8.058;2023-11-21T03:19:18;9.30;99.90
13892;DHT22;7016;48.172;8.058;2023-11-21T03:21:43;9.30;99.90
13892;DHT22;7016;48.172;8.058;2023-11-21T03:24:09;9.30;99.90
13892;DHT22;7016;48.172;8.058;2023-11-21T03:26:35;9.30;99.90
13892;DHT22;7016;48.172;8.058;2023-11-21T03:29:00;9.30;99.90
13892;DHT22;7016;48.172;8.058;2023-11-21T03:31:26;9.30;99.90
13892;DHT22;7016;48.172;8.058;2023-11-21T03:33:52;9.40;99.90
13892;DHT22;7016;48.172;8.058;2023-11-21T03:36:19;9.40;99.90
13892;DHT22;7016;48.172;8.058;2023-11-21T03:38:45;9.40;99.90
13892;DHT22;7016;48.172;8.058;2023-11-21T03:41:11;9.40;99.90
13892;DHT22;7016;48.172;8.058;2023-11-21T03:43:37;9.40;99.90
13892;DHT22;7016;48.172;8.058;2023-11-21T03:46:03;9.40;99.90
13892;DHT22;7016;48.172;8.058;2023-11-21T03:48:29;9.40;99.90
13892;DHT22;7016;48.172;8.058;2023-11-21T03:50:55;9.40;99.90
13892;DHT22;7016;48.172;8.058;2023-11-21T03:53:20;9.40;99.90
13892;DHT22;7016;48.172;8.058;2023-11-21T03:55:46;9.30;99.90
13892;DHT22;7016;48.172;8.058;2023-11-21T03:58:12;9.30;99.90
13892;DHT22;7016;48.172;8.058;2023-11-21T04:00:38;9.30;99.90
13892;DHT22;7016;48.172;8.058;2023-11-21T04:03:03;9.40;99.90
13892;DHT22;7016;48.172;8.058;2023-11-21T04:05:30;9.40;99.90
13892;DHT22;7016;48.172;8.058;2023-11-21T04:07:56;9.30;99.90
13892;DHT22;7016;48.172;8.058;2023-11-21T04:10:22;9.40;99.90
13892;DHT22;7016;48.172;8.058;2023-11-21T04:12:48;9.30;99.90
13892;DHT22;7016;48.172;8.058;2023-11-21T04:15:14;9.40;99.90
13892;DHT22;7016;48.172;8.058;2023-11-21T04:17:41;9.40;99.90
13892;DHT22;7016;48.172;8.058;2023-11-21T04:20:08;9.40;99.90
13892;DHT22;7016;48.172;8.058;2023-11-21T04:22:40;9.40;99.90
13892;DHT22;7016;48.172;8.058;2023-11-21T04:25:08;9.40;99.90
13892;DHT22;7016;48.172;8.058;2023-11-21T04:27:34;9.40;99.90
13892;DHT22;7016;48.172;8.058;2023-11-21T04:30:00;9.40;99.90
13892;DHT22;7016;48.172;8.058;2023-11-21T04:32:26;9.50;99.90
13892;DHT22;7016;48.172;8.058;2023-11-21T04:34:51;9.40;99.90
13892;DHT22;7016;48.172;8.058;2023-11-21T04:37:17;9.40;99.90
13892;DHT22;7016;48.172;8.058;2023-11-21T04:39:43;9.40;99.90
13892;DHT22;7016;48.172;8.058;2023-11-21T04:42:08;9.30;99.90
13892;DHT22;7016;48.172;8.058;2023-11-21T04:44:34;9.30;99.90
13892;DHT22;7016;48.172;8.058;2023-11-21T04:47:00;9.30;99.90
13892;DHT22;7016;48.172;8.058;2023-11-21T04:49:25;9.30;99.90
13892;DHT22;7016;48.172;8.058;2023-11-21T04:51:51;9.30;99.90
13892;DHT22;7016;48.172;8.058;2023-11-21T04:54:17;9.40;99.90
13892;DHT22;7016;48.172;8.058;2023-11-21T04:56:43;9.40;99.90
13892;DHT22;7016;48.172;8.058;2023-11-21T04:59:08;9.30;99.90
13892;DHT22;7016;48.172;8.058;2023-11-21T05:01:34;9.40;99.90
13892;DHT22;7016;48.172;8.058;2023-11-21T05:04:02;9.40;99.90
13892;DHT22;7016;48.172;8.058;2023-11-21T05:06:28;9.40;99.90
13892;DHT22;7016;48.172;8.058;2023-11-21T05:08:55;9.30;99.90
13892;DHT22;7016;48.172;8.058;2023-11-21T05:11:25;9.30;99.90
13892;DHT22;7016;48.172;8.058;2023-11-21T05:13:51;9.30;99.90
13892;DHT22;7016;48.172;8.058;2023-11-21T05:16:17;9.30;99.90
13892;DHT22;7016;48.172;8.058;2023-11-21T05:18:42;9.30;99.90
13892;DHT22;7016;48.172;8.058;2023-11-21T05:21:08;9.30;99.90
13892;DHT22;7016;48.172;8.058;2023-11-21T05:23:35;9.20;99.90
13892;DHT22;7016;48.172;8.058;2023-11-21T05:26:01;9.20;99.90
13892;DHT22;7016;48.172;8.058;2023-11-21T05:28:28;9.10;99.90
13892;DHT22;7016;48.172;8.058;2023-11-21T05:30:53;9.20;99.90
13892;DHT22;7016;48.172;8.058;2023-11-21T05:33:19;9.20;99.90
13892;DHT22;7016;48.172;8.058;2023-11-21T05:35:45;9.20;99.90
13892;DHT22;7016;48.172;8.058;2023-11-21T05:38:10;9.10;99.90
13892;DHT22;7016;48.172;8.058;2023-11-21T05:40:37;9.30;99.90
13892;DHT22;7016;48.172;8.058;2023-11-21T05:43:03;9.30;99.90
13892;DHT22;7016;48.172;8.058;2023-11-21T05:45:30;9.30;99.90
13892;DHT22;7016;48.172;8.058;2023-11-21T05:47:58;9.20;99.90
13892;DHT22;7016;48.172;8.058;2023-11-21T05:50:23;9.10;99.90
13892;DHT22;7016;48.172;8.058;2023-11-21T05:52:49;9.20;99.90
13892;DHT22;7016;48.172;8.058;2023-11-21T05:55:15;9.20;99.90
13892;DHT22;7016;48.172;8.058;2023-11-21T05:57:42;9.20;99.90
13892;DHT22;7016;48.172;8.058;2023-11-21T06:00:13;9.20;99.90
13892;DHT22;7016;48.172;8.058;2023-11-21T06:02:51;9.30;99.90
13892;DHT22;7016;48.172;8.058;2023-11-21T06:05:19;9.30;99.90
13892;DHT22;7016;48.172;8.058;2023-11-21T06:07:46;9.30;99.90
13892;DHT22;7016;48.172;8.058;2023-11-21T06:10:12;9.30;99.90
13892;DHT22;7016;48.172;8.058;2023-11-21T06:12:43;9.20;99.90
13892;DHT22;7016;48.172;8.058;2023-11-21T06:15:10;9.00;99.90
13892;DHT22;7016;48.172;8.058;2023-11-21T06:17:39;9.00;99.90
13892;DHT22;7016;48.172;8.058;2023-11-21T06:20:14;9.00;99.90
13892;DHT22;7016;48.172;8.058;2023-11-21T06:22:42;9.00;99.90
13892;DHT22;7016;48.172;8.058;2023-11-21T06:25:08;8.80;99.90
13892;DHT22;7016;48.172;8.058;2023-11-21T06:27:39;8.80;99.90
13892;DHT22;7016;48.172;8.058;2023-11-21T06:30:06;8.90;99.90
13892;DHT22;7016;48.172;8.058;2023-11-21T06:32:32;8.80;99.90
13892;DHT22;7016;48.172;8.058;2023-11-21T06:34:58;8.80;99.90
13892;DHT22;7016;48.172;8.058;2023-11-21T06:37:27;8.80;99.90
13892;DHT22;7016;48.172;8.058;2023-11-21T06:39:53;8.90;99.90
13892;DHT22;7016;48.172;8.058;2023-11-21T06:42:19;8.80;99.90
13892;DHT22;7016;48.172;8.058;2023-11-21T06:44:46;8.90;99.90
13892;DHT22;7016;48.172;8.058;2023-11-21T06:47:12;8.90;99.90
13892;DHT22;7016;48.172;8.058;2023-11-21T06:49:38;8.90;99.90
13892;DHT22;7016;48.172;8.058;2023-11-21T06:52:04;9.00;99.90
13892;DHT22;7016;48.172;8.058;2023-11-21T06:54:31;9.10;99.90
13892;DHT22;7016;48.172;8.058;2023-11-21T06:56:57;9.10;99.90
13892;DHT22;7016;48.172;8.058;2023-11-21T06:59:23;9.00;99.90
13892;DHT22;7016;48.172;8.058;2023-11-21T07:01:49;8.90;99.90
13892;DHT22;7016;48.172;8.058;2023-11-21T07:04:15;8.80;99.90
13892;DHT22;7016;48.172;8.058;2023-11-21T07:06:41;8.80;99.90
13892;DHT22;7016;48.172;8.058;2023-11-21T07:09:07;8.90;99.90
13892;DHT22;7016;48.172;8.058;2023-11-21T07:11:37;8.90;99.90
13892;DHT22;7016;48.172;8.058;2023-11-21T07:14:04;8.90;99.90
13892;DHT22;7016;48.172;8.058;2023-11-21T07:16:36;8.90;99.90
13892;DHT22;7016;48.172;8.058;2023-11-21T07:19:05;9.00;99.90
13892;DHT22;7016;48.172;8.058;2023-11-21T07:21:34;9.00;99.90
13892;DHT22;7016;48.172;8.058;2023-11-21T07:24:01;9.10;99.90
13892;DHT22;7016;48.172;8.058;2023-11-21T07:26:27;9.10;99.90
13892;DHT22;7016;48.172;8.058;2023-11-21T07:28:54;9.10;99.90
13892;DHT22;7016;48.172;8.058;2023-11-21T07:31:19;9.10;99.90
13892;DHT22;7016;48.172;8.058;2023-11-21T07:33:48;9.10;99.90
13892;DHT22;7016;48.172;8.058;2023-11-21T07:36:17;9.20;99.90
13892;DHT22;7016;48.172;8.058;2023-11-21T07:38:47;9.20;99.90
13892;DHT22;7016;48.172;8.058;2023-11-21T07:41:13;9.20;99.90
13892;DHT22;7016;48.172;8.058;2023-11-21T07:43:43;9.20;99.90
13892;DHT22;7016;48.172;8.058;2023-11-21T07:46:10;9.20;99.90
13892;DHT22;7016;48.172;8.058;2023-11-21T07:48:41;9.30;99.90
13892;DHT22;7016;48.172;8.058;2023-11-21T07:51:08;9.30;99.90
13892;DHT22;7016;48.172;8.058;2023-11-21T07:53:34;9.30;99.90
13892;DHT22;7016;48.172;8.058;2023-11-21T07:56:04;9.30;99.90
13892;DHT22;7016;48.172;8.058;2023-11-21T07:58:30;9.30;99.90
13892;DHT22;7016;48.172;8.058;2023-11-21T08:00:56;9.40;99.90
13892;DHT22;7016;48.172;8.058;2023-11-21T08:03:22;9.40;99.90
13892;DHT22;7016;48.172;8.058;2023-11-21T08:05:48;9.50;99.90
13892;DHT22;7016;48.172;8.058;2023-11-21T08:08:13;9.50;99.90
13892;DHT22;7016;48.172;8.058;2023-11-21T08:10:39;9.50;99.90
13892;DHT22;7016;48.172;8.058;2023-11-21T08:13:05;9.40;99.90
13892;DHT22;7016;48.172;8.058;2023-11-21T08:15:33;9.30;99.90
13892;DHT22;7016;48.172;8.058;2023-11-21T08:17:59;9.30;99.90
13892;DHT22;7016;48.172;8.058;2023-11-21T08:20:25;9.40;99.90
13892;DHT22;7016;48.172;8.058;2023-11-21T08:22:51;9.40;99.90
13892;DHT22;7016;48.172;8.058;2023-11-21T08:25:18;9.50;99.90
13892;DHT22;7016;48.172;8.058;2023-11-21T08:27:45;9.50;99.90
13892;DHT22;7016;48.172;8.058;2023-11-21T08:30:12;9.60;99.90
13892;DHT22;7016;48.172;8.058;2023-11-21T08:32:39;9.60;99.90
13892;DHT22;7016;48.172;8.058;2023-11-21T08:35:07;9.60;99.90
13892;DHT22;7016;48.172;8.058;2023-11-21T08:37:33;9.60;99.90
13892;DHT22;7016;48.172;8.058;2023-11-21T08:40:06;9.60;99.90
13892;DHT22;7016;48.172;8.058;2023-11-21T08:42:42;9.60;99.90
13892;DHT22;7016;48.172;8.058;2023-11-21T08:45:08;9.50;99.90
13892;DHT22;7016;48.172;8.058;2023-11-21T08:47:35;9.50;99.90
13892;DHT22;7016;48.172;8.058;2023-11-21T08:50:02;9.50;99.90
13892;DHT22;7016;48.172;8.058;2023-11-21T08:52:33;9.50;99.90
13892;DHT22;7016;48.172;8.058;2023-11-21T08:54:59;9.30;99.90
13892;DHT22;7016;48.172;8.058;2023-11-21T08:57:28;9.30;99.90
13892;DHT22;7016;48.172;8.058;2023-11-21T08:59:54;9.30;99.90
13892;DHT22;7016;48.172;8.058;2023-11-21T09:02:26;9.30;99.90
13892;DHT22;7016;48.172;8.058;2023-11-21T09:04:52;9.30;99.90
13892;DHT22;7016;48.172;8.058;2023-11-21T09:07:21;9.30;99.90
13892;DHT22;7016;48.172;8.058;2023-11-21T09:09:47;9.30;99.90
13892;DHT22;7016;48.172;8.058;2023-11-21T09:12:14;9.30;99.90
13892;DHT22;7016;48.172;8.058;2023-11-21T09:14:40;9.30;99.90
13892;DHT22;7016;48.172;8.058;2023-11-21T09:17:06;9.30;99.90
13892;DHT22;7016;48.172;8.058;2023-11-21T09:19:42;9.30;99.90
13892;DHT22;7016;48.172;8.058;2023-11-21T09:22:10;9.40;99.90
13892;DHT22;7016;48.172;8.058;2023-11-21T09:24:36;9.30;99.90
13892;DHT22;7016;48.172;8.058;2023-11-21T09:27:03;9.30;99.90
13892;DHT22;7016;48.172;8.058;2023-11-21T09:29:30;9.30;99.90
13892;DHT22;7016;48.172;8.058;2023-11-21T09:31:57;9.30;99.90
13892;DHT22;7016;48.172;8.058;2023-11-21T09:34:25;9.30;99.90
13892;DHT22;7016;48.172;8.058;2023-11-21T09:36:51;9.30;99.90
13892;DHT22;7016;48.172;8.058;2023-11-21T09:39:17;9.20;99.90
13892;DHT22;7016;48.172;8.058;2023-11-21T09:41:55;9.20;99.90
13892;DHT22;7016;48.172;8.058;2023-11-21T09:45:15;9.20;99.90
13892;DHT22;7016;48.172;8.058;2023-11-21T09:47:22;9.20;99.90
13892;DHT22;7016;48.172;8.058;2023-11-21T09:49:48;9.30;99.90
13892;DHT22;7016;48.172;8.058;2023-11-21T09:52:27;9.20;99.90
13892;DHT22;7016;48.172;8.058;2023-11-21T09:54:54;9.20;99.90
13892;DHT22;7016;48.172;8.058;2023-11-21T09:57:23;9.20;99.90
13892;DHT22;7016;48.172;8.058;2023-11-21T09:59:53;9.20;99.90
13892;DHT22;7016;48.172;8.058;2023-11-21T10:02:28;9.30;99.90
13892;DHT22;7016;48.172;8.058;2023-11-21T10:04:59;9.30;99.90
13892;DHT22;7016;48.172;8.058;2023-11-21T10:07:26;9.30;99.90
13892;DHT22;7016;48.172;8.058;2023-11-21T10:09:54;9.40;99.90
13892;DHT22;7016;48.172;8.058;2023-11-21T10:12:22;9.40;99.90
13892;DHT22;7016;48.172;8.058;2023-11-21T10:14:49;9.80;99.90
13892;DHT22;7016;48.172;8.058;2023-11-21T10:17:18;9.80;99.90
13892;DHT22;7016;48.172;8.058;2023-11-21T10:19:47;9.80;99.90
13892;DHT22;7016;48.172;8.058;2023-11-21T10:22:16;9.60;99.90
13892;DHT22;7016;48.172;8.058;2023-11-21T10:24:43;9.40;99.90
13892;DHT22;7016;48.172;8.058;2023-11-21T10:27:09;9.30;99.90
13892;DHT22;7016;48.172;8.058;2023-11-21T10:29:34;9.20;99.90
13892;DHT22;7016;48.172;8.058;2023-11-21T10:32:04;9.20;99.90
13892;DHT22;7016;48.172;8.058;2023-11-21T10:34:31;9.10;99.90
13892;DHT22;7016;48.172;8.058;2023-11-21T10:36:57;9.10;99.90
13892;DHT22;7016;48.172;8.058;2023-11-21T10:39:24;9.20;99.90
13892;DHT22;7016;48.172;8.058;2023-11-21T10:41:56;9.30;99.90
13892;DHT22;7016;48.172;8.058;2023-11-21T10:44:22;9.10;99.90
13892;DHT22;7016;48.172;8.058;2023-11-21T10:46:51;9.10;99.90
13892;DHT22;7016;48.172;8.058;2023-11-21T10:49:21;9.00;99.90
13892;DHT22;7016;48.172;8.058;2023-11-21T10:51:47;9.00;99.90
13892;DHT22;7016;48.172;8.058;2023-11-21T10:54:21;9.10;99.90
13892;DHT22;7016;48.172;8.058;2023-11-21T10:56:55;9.10;99.90
13892;DHT22;7016;48.172;8.058;2023-11-21T10:59:22;9.10;99.90
13892;DHT22;7016;48.172;8.058;2023-11-21T11:01:51;9.10;99.90
13892;DHT22;7016;48.172;8.058;2023-11-21T11:04:22;9.10;99.90
13892;DHT22;7016;48.172;8.058;2023-11-21T11:06:54;9.10;99.90
13892;DHT22;7016;48.172;8.058;2023-11-21T11:09:20;9.10;99.90
13892;DHT22;7016;48.172;8.058;2023-11-21T11:11:46;9.10;99.90
13892;DHT22;7016;48.172;8.058;2023-11-21T11:14:12;9.20;99.90
13892;DHT22;7016;48.172;8.058;2023-11-21T11:16:39;9.20;99.90
13892;DHT22;7016;48.172;8.058;2023-11-21T11:19:07;9.20;99.90
13892;DHT22;7016;48.172;8.058;2023-11-21T11:29:42;9.20;99.90
13892;DHT22;7016;48.172;8.058;2023-11-21T11:35:04;9.20;99.90
13892;DHT22;7016;48.172;8.058;2023-11-21T11:37:33;9.20;99.90
13892;DHT22;7016;48.172;8.058;2023-11-21T11:39:59;9.20;99.90
13892;DHT22;7016;48.172;8.058;2023-11-21T11:42:26;9.30;99.90
13892;DHT22;7016;48.172;8.058;2023-11-21T11:44:52;9.40;99.90
13892;DHT22;7016;48.172;8.058;2023-11-21T11:47:24;9.30;99.90
13892;DHT22;7016;48.172;8.058;2023-11-21T11:50:09;9.30;99.90
13892;DHT22;7016;48.172;8.058;2023-11-21T11:52:40;9.30;99.90
13892;DHT22;7016;48.172;8.058;2023-11-21T11:55:11;9.20;99.90
13892;DHT22;7016;48.172;8.058;2023-11-21T11:57:38;9.20;99.90
13892;DHT22;7016;48.172;8.058;2023-11-21T12:00:11;9.20;99.90
13892;DHT22;7016;48.172;8.058;2023-11-21T12:02:41;9.20;99.90
13892;DHT22;7016;48.172;8.058;2023-11-21T12:05:10;9.20;99.90
13892;DHT22;7016;48.172;8.058;2023-11-21T12:07:52;9.10;99.90
13892;DHT22;7016;48.172;8.058;2023-11-21T12:10:20;9.10;99.90
13892;DHT22;7016;48.172;8.058;2023-11-21T12:12:52;9.10;99.90
13892;DHT22;7016;48.172;8.058;2023-11-21T12:15:19;9.20;99.90
13892;DHT22;7016;48.172;8.058;2023-11-21T12:17:46;9.10;99.90
13892;DHT22;7016;48.172;8.058;2023-11-21T12:20:13;9.20;99.90
13892;DHT22;7016;48.172;8.058;2023-11-21T12:22:48;9.20;99.90
13892;DHT22;7016;48.172;8.058;2023-11-21T12:25:17;9.20;99.90
13892;DHT22;7016;48.172;8.058;2023-11-21T12:27:48;9.30;99.90
13892;DHT22;7016;48.172;8.058;2023-11-21T12:30:16;9.30;99.90
13892;DHT22;7016;48.172;8.058;2023-11-21T12:32:52;9.40;99.90
13892;DHT22;7016;48.172;8.058;2023-11-21T12:35:22;9.40;99.90
13892;DHT22;7016;48.172;8.058;2023-11-21T12:37:48;9.40;99.90
13892;DHT22;7016;48.172;8.058;2023-11-21T12:40:15;9.50;99.90
13892;DHT22;7016;48.172;8.058;2023-11-21T12:42:42;9.50;99.90
13892;DHT22;7016;48.172;8.058;2023-11-21T12:47:47;9.50;99.90
13892;DHT22;7016;48.172;8.058;2023-11-21T12:50:23;9.60;99.90
13892;DHT22;7016;48.172;8.058;2023-11-21T12:52:50;9.60;99.90
13892;DHT22;7016;48.172;8.058;2023-11-21T12:55:18;9.60;99.90
13892;DHT22;7016;48.172;8.058;2023-11-21T12:57:48;9.50;99.90
13892;DHT22;7016;48.172;8.058;2023-11-21T13:00:18;9.60;99.90
13892;DHT22;7016;48.172;8.058;2023-11-21T13:02:57;9.70;99.90
13892;DHT22;7016;48.172;8.058;2023-11-21T13:05:33;9.80;99.90
13892;DHT22;7016;48.172;8.058;2023-11-21T13:08:02;9.70;99.90
13892;DHT22;7016;48.172;8.058;2023-11-21T13:10:35;9.80;99.90
13892;DHT22;7016;48.172;8.058;2023-11-21T13:13:06;9.80;99.90
13892;DHT22;7016;48.172;8.058;2023-11-21T13:15:34;9.80;99.90
13892;DHT22;7016;48.172;8.058;2023-11-21T13:18:02;9.80;99.90
13892;DHT22;7016;48.172;8.058;2023-11-21T13:20:29;9.80;99.90
13892;DHT22;7016;48.172;8.058;2023-11-21T13:22:58;9.80;99.90
13892;DHT22;7016;48.172;8.058;2023-11-21T13:25:28;9.90;99.90
13892;DHT22;7016;48.172;8.058;2023-11-21T13:27:58;9.90;99.90
13892;DHT22;7016;48.172;8.058;2023-11-21T13:30:28;9.80;99.90
13892;DHT22;7016;48.172;8.058;2023-11-21T13:33:00;9.90;99.90
13892;DHT22;7016;48.172;8.058;2023-11-21T13:35:32;10.00;99.90
13892;DHT22;7016;48.172;8.058;2023-11-21T13:38:08;9.90;99.90
13892;DHT22;7016;48.172;8.058;2023-11-21T13:40:35;9.90;99.90
13892;DHT22;7016;48.172;8.058;2023-11-21T13:43:23;10.00;99.90
13892;DHT22;7016;48.172;8.058;2023-11-21T13:45:52;9.90;99.90
13892;DHT22;7016;48.172;8.058;2023-11-21T13:48:26;9.90;99.90
13892;DHT22;7016;48.172;8.058;2023-11-21T13:51:06;9.90;99.90
13892;DHT22;7016;48.172;8.058;2023-11-21T13:53:46;9.90;99.90
13892;DHT22;7016;48.172;8.058;2023-11-21T13:56:15;10.00;99.90
13892;DHT22;7016;48.172;8.058;2023-11-21T13:58:59;10.00;99.90
13892;DHT22;7016;48.172;8.058;2023-11-21T14:01:35;10.00;99.90
13892;DHT22;7016;48.172;8.058;2023-11-21T14:04:08;10.00;99.90
13892;DHT22;7016;48.172;8.058;2023-11-21T14:06:43;10.00;99.90
13892;DHT22;7016;48.172;8.058;2023-11-21T14:09:19;10.00;99.90
13892;DHT22;7016;48.172;8.058;2023-11-21T14:11:51;10.00;99.90
13892;DHT22;7016;48.172;8.058;2023-11-21T14:14:18;10.00;99.90
13892;DHT22;7016;48.172;8.058;2023-11-21T14:16:45;10.00;99.90
13892;DHT22;7016;48.172;8.058;2023-11-21T14:19:10;10.10;99.90
13892;DHT22;7016;48.172;8.058;2023-11-21T14:21:46;10.00;99.90
13892;DHT22;7016;48.172;8.058;2023-11-21T14:24:14;10.20;99.90
13892;DHT22;7016;48.172;8.058;2023-11-21T14:26:44;10.20;99.90
13892;DHT22;7016;48.172;8.058;2023-11-21T14:29:15;10.10;99.90
13892;DHT22;7016;48.172;8.058;2023-11-21T14:31:43;10.10;99.90
13892;DHT22;7016;48.172;8.058;2023-11-21T14:34:09;10.20;99.90
13892;DHT22;7016;48.172;8.058;2023-11-21T14:36:36;10.10;99.90
13892;DHT22;7016;48.172;8.058;2023-11-21T14:39:05;10.10;99.90
13892;DHT22;7016;48.172;8.058;2023-11-21T14:41:57;10.10;99.90
13892;DHT22;7016;48.172;8.058;2023-11-21T14:44:24;10.10;99.90
13892;DHT22;7016;48.172;8.058;2023-11-21T14:46:52;10.10;99.90
13892;DHT22;7016;48.172;8.058;2023-11-21T14:49:20;10.20;99.90
13892;DHT22;7016;48.172;8.058;2023-11-21T14:51:53;10.20;99.90
13892;DHT22;7016;48.172;8.058;2023-11-21T14:54:30;10.20;99.90
13892;DHT22;7016;48.172;8.058;2023-11-21T14:57:09;10.10;99.90
13892;DHT22;7016;48.172;8.058;2023-11-21T14:59:42;10.10;99.90
13892;DHT22;7016;48.172;8.058;2023-11-21T15:02:08;10.10;99.90
13892;DHT22;7016;48.172;8.058;2023-11-21T15:04:42;10.20;99.90
13892;DHT22;7016;48.172;8.058;2023-11-21T15:07:08;10.10;99.90
13892;DHT22;7016;48.172;8.058;2023-11-21T15:09:34;10.20;99.90
13892;DHT22;7016;48.172;8.058;2023-11-21T15:12:00;10.20;99.90
13892;DHT22;7016;48.172;8.058;2023-11-21T15:14:50;10.20;99.90
13892;DHT22;7016;48.172;8.058;2023-11-21T15:17:19;10.10;99.90
13892;DHT22;7016;48.172;8.058;2023-11-21T15:19:49;10.10;99.90
13892;DHT22;7016;48.172;8.058;2023-11-21T15:22:16;10.10;99.90
13892;DHT22;7016;48.172;8.058;2023-11-21T15:24:42;9.90;99.90
13892;DHT22;7016;48.172;8.058;2023-11-21T15:27:11;9.90;99.90
13892;DHT22;7016;48.172;8.058;2023-11-21T15:29:38;9.90;99.90
13892;DHT22;7016;48.172;8.058;2023-11-21T15:32:05;10.00;99.90
13892;DHT22;7016;48.172;8.058;2023-11-21T15:34:32;10.00;99.90
13892;DHT22;7016;48.172;8.058;2023-11-21T15:36:58;10.80;99.90
13892;DHT22;7016;48.172;8.058;2023-11-21T15:39:24;10.00;99.90
13892;DHT22;7016;48.172;8.058;2023-11-21T15:41:54;9.90;99.90
13892;DHT22;7016;48.172;8.058;2023-11-21T15:44:20;10.00;99.90
13892;DHT22;7016;48.172;8.058;2023-11-21T15:46:46;10.00;99.90
13892;DHT22;7016;48.172;8.058;2023-11-21T15:49:13;10.00;99.90
13892;DHT22;7016;48.172;8.058;2023-11-21T15:51:45;9.90;99.90
13892;DHT22;7016;48.172;8.058;2023-11-21T15:54:13;10.00;99.90
13892;DHT22;7016;48.172;8.058;2023-11-21T15:56:39;10.00;99.90
13892;DHT22;7016;48.172;8.058;2023-11-21T15:59:04;10.00;99.90
13892;DHT22;7016;48.172;8.058;2023-11-21T16:01:31;10.00;99.90
13892;DHT22;7016;48.172;8.058;2023-11-21T16:03:57;9.90;99.90
13892;DHT22;7016;48.172;8.058;2023-11-21T16:06:26;9.90;99.90
13892;DHT22;7016;48.172;8.058;2023-11-21T16:08:53;10.00;99.90
13892;DHT22;7016;48.172;8.058;2023-11-21T16:11:19;9.90;99.90
13892;DHT22;7016;48.172;8.058;2023-11-21T16:13:45;9.90;99.90
13892;DHT22;7016;48.172;8.058;2023-11-21T16:16:11;9.90;99.90
13892;DHT22;7016;48.172;8.058;2023-11-21T16:18:37;9.90;99.90